createdAt,value
2022-08-05T00:04:46.818Z,73715.06
2022-08-05T00:14:59.934Z,73731.25
2022-08-05T00:25:22.019Z,73761.59
2022-08-05T00:35:33.379Z,73779.81
2022-08-05T00:45:38.636Z,73787.91
2022-08-05T00:55:44.320Z,73791.94
2022-08-05T01:05:48.738Z,73796.00
2022-08-05T01:15:59.696Z,73775.75
2022-08-05T01:26:30.234Z,73767.66
2022-08-05T01:36:35.961Z,73781.84
2022-08-05T01:46:46.735Z,73804.09
2022-08-05T01:58:12.659Z,73816.22
2022-08-05T02:07:21.861Z,73816.22
2022-08-05T02:18:28.062Z,73787.91
2022-08-05T02:27:59.289Z,73789.91
2022-08-05T02:38:09.748Z,73791.94
2022-08-05T02:48:17.633Z,73787.91
2022-08-05T02:58:22.487Z,73791.94
2022-08-05T03:08:33.883Z,73775.75
2022-08-05T03:18:35.868Z,73775.75
2022-08-05T03:28:44.164Z,73753.50
2022-08-05T03:38:53.453Z,73713.06
2022-08-05T03:48:57.869Z,73670.56
2022-08-05T03:59:08.967Z,73630.13
2022-08-05T04:09:11.783Z,73561.34
2022-08-05T04:19:16.763Z,73524.94
2022-08-05T04:29:29.199Z,73496.63
2022-08-05T04:39:32.431Z,73448.06
2022-08-05T04:50:01.474Z,73391.44
2022-08-05T05:00:03.856Z,73399.53
2022-08-05T05:10:08.061Z,73367.19
2022-08-05T05:20:13.658Z,73314.59
2022-08-05T05:30:31.009Z,73294.34
2022-08-05T05:40:38.826Z,73219.53
2022-08-05T05:50:48.469Z,73173.00
2022-08-05T06:00:50.600Z,73173.00
2022-08-05T06:10:53.017Z,73162.91
2022-08-05T06:20:55.076Z,73092.09
2022-08-05T06:31:01.575Z,73015.25
2022-08-05T06:41:14.076Z,73023.34
2022-08-05T06:51:23.981Z,73013.22
2022-08-05T07:01:33.110Z,72978.84
2022-08-05T07:11:37.192Z,72928.28
2022-08-05T07:22:00.323Z,72978.84
2022-08-05T07:32:06.484Z,72908.06
2022-08-05T07:42:14.949Z,72877.72
2022-08-05T07:52:23.933Z,72833.25
2022-08-05T08:03:15.167Z,72772.56
2022-08-05T08:12:59.863Z,72815.03
2022-08-05T08:23:59.863Z,72756.38
2022-08-05T08:33:36.132Z,72728.06
2022-08-05T08:45:25.240Z,72770.53
2022-08-05T08:54:20.207Z,72713.91
2022-08-05T09:04:30.327Z,72673.47
2022-08-05T09:14:57.764Z,72620.91
2022-08-05T09:25:14.019Z,72622.91
2022-08-05T09:35:27.646Z,72673.47
2022-08-05T09:46:06.697Z,72669.44
2022-08-05T09:56:13.077Z,72631.00
2022-08-05T10:06:20.680Z,72643.16
2022-08-05T10:16:37.903Z,72667.41
2022-08-05T10:27:08.208Z,72673.47
2022-08-05T10:37:15.994Z,72681.56
2022-08-05T10:47:27.126Z,72679.53
2022-08-05T10:57:36.068Z,72685.59
2022-08-05T11:08:17.083Z,72655.28
2022-08-05T11:18:34.565Z,72667.41
2022-08-05T11:28:38.171Z,72659.31
2022-08-05T11:38:45.410Z,72604.72
2022-08-05T11:48:59.596Z,72564.28
2022-08-05T11:59:13.769Z,72556.19
2022-08-05T12:09:20.849Z,72533.94
2022-08-05T12:20:26.825Z,72550.13
2022-08-05T12:30:22.604Z,72564.28
2022-08-05T12:40:36.185Z,72558.22
2022-08-05T12:50:38.976Z,72538.00
2022-08-05T13:02:01.517Z,72529.91
2022-08-05T13:11:17.656Z,72489.47
2022-08-05T13:21:52.311Z,72449.00
2022-08-05T13:32:05.109Z,72444.97
2022-08-05T13:42:14.511Z,72436.88
2022-08-05T13:52:19.778Z,72410.59
2022-08-05T14:02:34.800Z,72416.66
2022-08-05T14:12:48.918Z,72408.56
2022-08-05T14:22:51.183Z,72402.50
2022-08-05T14:33:00.107Z,72378.25
2022-08-05T14:43:11.122Z,72353.97
2022-08-05T14:53:14.514Z,72364.09
2022-08-05T15:03:19.355Z,72372.16
2022-08-05T15:13:46.228Z,72384.31
2022-08-05T15:23:49.058Z,72376.22
2022-08-05T15:34:18.419Z,72372.16
2022-08-05T15:44:25.558Z,72376.22
2022-08-05T15:54:35.191Z,72386.31
2022-08-05T16:04:39.959Z,72374.19
2022-08-05T16:14:48.830Z,72380.25
2022-08-05T16:24:53.427Z,72384.31
2022-08-05T16:35:00.311Z,72380.25
2022-08-05T16:45:02.398Z,72376.22
2022-08-05T16:55:24.543Z,72384.31
2022-08-05T17:05:27.451Z,72380.25
2022-08-05T17:15:49.681Z,72388.34
2022-08-05T17:25:59.521Z,72400.47
2022-08-05T17:36:07.876Z,72416.66
2022-08-05T17:46:14.499Z,72424.75
2022-08-05T17:56:19.581Z,72432.84
2022-08-05T18:06:29.296Z,72449.00
2022-08-05T18:16:46.838Z,72469.22
2022-08-05T18:26:55.314Z,72485.41
2022-08-05T18:37:06.043Z,72501.59
2022-08-05T18:47:17.175Z,72517.75
2022-08-05T18:57:24.011Z,72525.84
2022-08-05T19:07:45.080Z,72535.97
2022-08-05T19:18:08.068Z,72560.22
2022-08-05T19:28:13.049Z,72578.44
2022-08-05T19:38:20.321Z,72614.84
2022-08-05T19:48:30.955Z,72645.16
2022-08-05T19:58:53.362Z,72663.38
2022-08-05T20:09:00.895Z,72683.59
2022-08-05T20:19:21.262Z,72699.78
2022-08-05T20:29:33.352Z,72728.06
2022-08-05T20:39:36.738Z,72748.31
2022-08-05T20:49:42.765Z,72782.69
2022-08-05T21:00:19.707Z,72829.19
2022-08-05T21:10:15.395Z,72857.50
2022-08-05T21:20:33.290Z,72891.88
2022-08-05T21:30:38.340Z,72910.09
2022-08-05T21:40:43.250Z,72924.25
2022-08-05T21:50:53.178Z,72948.50
2022-08-05T22:01:01.844Z,72974.81
2022-08-05T22:11:09.203Z,72986.94
2022-08-05T22:21:18.867Z,72995.03
2022-08-05T22:31:22.953Z,72997.06
2022-08-05T22:42:11.314Z,73009.19
2022-08-05T22:52:05.693Z,73023.34
2022-08-05T23:02:16.459Z,73035.47
2022-08-05T23:12:24.744Z,73059.75
2022-08-05T23:22:28.827Z,73075.94
2022-08-05T23:32:33.440Z,73098.19
2022-08-05T23:42:40.076Z,73108.28
2022-08-05T23:52:54.710Z,73116.38
